<?xml version="1.0" encoding="UTF-8" standalone="no" ?>
<gpx xmlns="http://www.topografix.com/GPX/1/1" xmlns:xsi="http://www.w3.org/2001/XMLSchema-instance" xsi:schemaLocation="http://www.topografix.com/GPX/1/1 http://www.topografix.com/GPX/1/1/gpx.xsd" version="1.1" creator="VisuGPX - https://www.visugpx.com">
  <metadata>
    <name>Rando des Rosiers 2013</name>
    <desc><![CDATA[Très technique]]></desc>
  </metadata>
  <trk>
    <name><![CDATA[Tracé]]></name>
    <trkseg>
      <trkpt lat="47.361" lon="-0.03495">
        <ele>83.77</ele>
        <time>2013-04-28T14:01:50Z</time>
      </trkpt>
      <trkpt lat="47.361" lon="-0.03494">
        <ele>82.81</ele>
        <time>2013-04-28T14:02:51Z</time>
      </trkpt>
      <trkpt lat="47.361" lon="-0.03494">
        <ele>81.85</ele>
        <time>2013-04-28T14:03:03Z</time>
      </trkpt>
      <trkpt lat="47.36101" lon="-0.03487">
        <ele>82.33</ele>
        <time>2013-04-28T14:05:57Z</time>
      </trkpt>
      <trkpt lat="47.36101" lon="-0.03487">
        <ele>82.81</ele>
        <time>2013-04-28T14:06:03Z</time>
      </trkpt>
      <trkpt lat="47.36101" lon="-0.03488">
        <ele>83.29</ele>
        <time>2013-04-28T14:07:11Z</time>
      </trkpt>
      <trkpt lat="47.36101" lon="-0.03487">
        <ele>81.85</ele>
        <time>2013-04-28T14:08:54Z</time>
      </trkpt>
      <trkpt lat="47.36101" lon="-0.03488">
        <ele>81.37</ele>
        <time>2013-04-28T14:10:10Z</time>
      </trkpt>
      <trkpt lat="47.36101" lon="-0.03488">
        <ele>81.85</ele>
        <time>2013-04-28T14:12:13Z</time>
      </trkpt>
      <trkpt lat="47.36101" lon="-0.03488">
        <ele>81.37</ele>
        <time>2013-04-28T14:12:22Z</time>
      </trkpt>
      <trkpt lat="47.36101" lon="-0.03488">
        <ele>82.33</ele>
        <time>2013-04-28T14:12:24Z</time>
      </trkpt>
      <trkpt lat="47.36101" lon="-0.03489">
        <ele>83.29</ele>
        <time>2013-04-28T14:13:50Z</time>
      </trkpt>
      <trkpt lat="47.361" lon="-0.03489">
        <ele>82.33</ele>
        <time>2013-04-28T14:14:06Z</time>
      </trkpt>
      <trkpt lat="47.361" lon="-0.03489">
        <ele>81.37</ele>
        <time>2013-04-28T14:14:21Z</time>
      </trkpt>
      <trkpt lat="47.361" lon="-0.03489">
        <ele>81.37</ele>
        <time>2013-04-28T14:14:46Z</time>
      </trkpt>
      <trkpt lat="47.361" lon="-0.03489">
        <ele>82.33</ele>
        <time>2013-04-28T14:16:55Z</time>
      </trkpt>
      <trkpt lat="47.361" lon="-0.03489">
        <ele>82.81</ele>
        <time>2013-04-28T14:17:02Z</time>
      </trkpt>
      <trkpt lat="47.361" lon="-0.0349">
        <ele>79.93</ele>
        <time>2013-04-28T14:17:27Z</time>
      </trkpt>
      <trkpt lat="47.361" lon="-0.0349">
        <ele>80.89</ele>
        <time>2013-04-28T14:17:34Z</time>
      </trkpt>
      <trkpt lat="47.361" lon="-0.0349">
        <ele>82.81</ele>
        <time>2013-04-28T14:17:36Z</time>
      </trkpt>
      <trkpt lat="47.361" lon="-0.0349">
        <ele>80.89</ele>
        <time>2013-04-28T14:17:38Z</time>
      </trkpt>
      <trkpt lat="47.361" lon="-0.0349">
        <ele>82.33</ele>
        <time>2013-04-28T14:17:40Z</time>
      </trkpt>
      <trkpt lat="47.361" lon="-0.0349">
        <ele>81.37</ele>
        <time>2013-04-28T14:18:42Z</time>
      </trkpt>
      <trkpt lat="47.36101" lon="-0.0349">
        <ele>82.81</ele>
        <time>2013-04-28T14:19:26Z</time>
      </trkpt>
      <trkpt lat="47.36101" lon="-0.0349">
        <ele>80.89</ele>
        <time>2013-04-28T14:20:00Z</time>
      </trkpt>
      <trkpt lat="47.36101" lon="-0.0349">
        <ele>81.37</ele>
        <time>2013-04-28T14:20:22Z</time>
      </trkpt>
      <trkpt lat="47.36101" lon="-0.0349">
        <ele>80.89</ele>
        <time>2013-04-28T14:20:44Z</time>
      </trkpt>
      <trkpt lat="47.36101" lon="-0.0349">
        <ele>82.81</ele>
        <time>2013-04-28T14:21:09Z</time>
      </trkpt>
      <trkpt lat="47.36101" lon="-0.0349">
        <ele>81.37</ele>
        <time>2013-04-28T14:21:12Z</time>
      </trkpt>
      <trkpt lat="47.36102" lon="-0.0349">
        <ele>81.85</ele>
        <time>2013-04-28T14:21:34Z</time>
      </trkpt>
      <trkpt lat="47.36101" lon="-0.0349">
        <ele>82.81</ele>
        <time>2013-04-28T14:22:45Z</time>
      </trkpt>
      <trkpt lat="47.36101" lon="-0.0349">
        <ele>81.85</ele>
        <time>2013-04-28T14:22:47Z</time>
      </trkpt>
      <trkpt lat="47.36102" lon="-0.0349">
        <ele>83.29</ele>
        <time>2013-04-28T14:23:49Z</time>
      </trkpt>
      <trkpt lat="47.36102" lon="-0.0349">
        <ele>82.33</ele>
        <time>2013-04-28T14:23:59Z</time>
      </trkpt>
      <trkpt lat="47.36102" lon="-0.0349">
        <ele>81.37</ele>
        <time>2013-04-28T14:24:40Z</time>
      </trkpt>
      <trkpt lat="47.36102" lon="-0.0349">
        <ele>82.81</ele>
        <time>2013-04-28T14:24:51Z</time>
      </trkpt>
      <trkpt lat="47.36102" lon="-0.0349">
        <ele>82.81</ele>
        <time>2013-04-28T14:25:53Z</time>
      </trkpt>
      <trkpt lat="47.36101" lon="-0.0349">
        <ele>81.85</ele>
        <time>2013-04-28T14:26:37Z</time>
      </trkpt>
      <trkpt lat="47.36101" lon="-0.0349">
        <ele>82.33</ele>
        <time>2013-04-28T14:27:00Z</time>
      </trkpt>
      <trkpt lat="47.36101" lon="-0.0349">
        <ele>82.33</ele>
        <time>2013-04-28T14:27:13Z</time>
      </trkpt>
      <trkpt lat="47.36101" lon="-0.0349">
        <ele>82.81</ele>
        <time>2013-04-28T14:32:16Z</time>
      </trkpt>
      <trkpt lat="47.36102" lon="-0.0349">
        <ele>82.33</ele>
        <time>2013-04-28T14:33:37Z</time>
      </trkpt>
      <trkpt lat="47.36102" lon="-0.0349">
        <ele>83.29</ele>
        <time>2013-04-28T14:33:39Z</time>
      </trkpt>
      <trkpt lat="47.36102" lon="-0.0349">
        <ele>80.41</ele>
        <time>2013-04-28T14:33:40Z</time>
      </trkpt>
      <trkpt lat="47.36102" lon="-0.0349">
        <ele>80.89</ele>
        <time>2013-04-28T14:33:41Z</time>
      </trkpt>
      <trkpt lat="47.36102" lon="-0.0349">
        <ele>83.77</ele>
        <time>2013-04-28T14:33:43Z</time>
      </trkpt>
      <trkpt lat="47.36102" lon="-0.0349">
        <ele>81.85</ele>
        <time>2013-04-28T14:33:47Z</time>
      </trkpt>
    </trkseg>
  </trk>
</gpx>